createdAt,value
2022-11-10T00:02:31.930Z,11.20
2022-11-10T00:05:15.868Z,11.20
2022-11-10T00:07:58.230Z,11.20
2022-11-10T00:10:56.637Z,11.30
2022-11-10T00:14:00.983Z,11.40
2022-11-10T00:17:00.928Z,11.40
2022-11-10T00:19:43.027Z,11.40
2022-11-10T00:22:26.117Z,11.50
2022-11-10T00:25:09.736Z,11.50
2022-11-10T00:27:53.371Z,11.50
2022-11-10T00:30:38.565Z,11.50
2022-11-10T00:33:20.736Z,11.50
2022-11-10T00:36:03.452Z,11.60
2022-11-10T00:38:45.505Z,11.60
2022-11-10T00:41:27.610Z,11.60
2022-11-10T00:44:11.029Z,11.70
2022-11-10T00:46:52.859Z,11.70
2022-11-10T00:49:34.639Z,11.80
2022-11-10T00:52:16.639Z,11.80
2022-11-10T00:54:58.692Z,11.80
2022-11-10T00:57:41.025Z,11.80
2022-11-10T01:00:24.950Z,11.90
2022-11-10T01:03:07.680Z,11.90
2022-11-10T01:05:49.640Z,12.00
2022-11-10T01:08:31.678Z,12.00
2022-11-10T01:11:16.791Z,12.00
2022-11-10T01:13:59.418Z,12.00
2022-11-10T01:16:43.100Z,12.10
2022-11-10T01:19:25.694Z,12.00
2022-11-10T01:22:08.058Z,12.10
2022-11-10T01:24:50.466Z,12.10
2022-11-10T01:27:32.483Z,12.10
2022-11-10T01:30:15.000Z,12.10
2022-11-10T01:32:59.004Z,12.10
2022-11-10T01:35:41.454Z,12.10
2022-11-10T01:38:24.149Z,12.20
2022-11-10T01:41:08.243Z,12.20
2022-11-10T01:43:50.579Z,12.20
2022-11-10T01:46:33.031Z,12.20
2022-11-10T01:49:18.978Z,12.20
2022-11-10T01:52:08.057Z,12.20
2022-11-10T01:54:51.257Z,12.20
2022-11-10T01:57:33.502Z,12.20
2022-11-10T02:00:18.018Z,12.20
2022-11-10T02:03:06.955Z,12.20
2022-11-10T02:05:53.038Z,12.20
2022-11-10T02:08:36.783Z,12.20
2022-11-10T02:11:19.276Z,12.30
2022-11-10T02:14:02.161Z,12.20
2022-11-10T02:16:44.774Z,12.20
2022-11-10T02:19:28.031Z,12.20
2022-11-10T02:22:11.725Z,12.20
2022-11-10T02:24:53.915Z,12.20
2022-11-10T02:27:36.352Z,12.20
2022-11-10T02:30:19.001Z,12.20
2022-11-10T02:33:02.898Z,12.20
2022-11-10T02:35:45.121Z,12.20
2022-11-10T02:38:28.797Z,12.20
2022-11-10T02:41:11.353Z,12.20
2022-11-10T02:43:54.874Z,12.20
2022-11-10T02:46:37.573Z,12.20
2022-11-10T02:49:19.834Z,12.20
2022-11-10T02:52:02.318Z,12.20
2022-11-10T02:54:46.215Z,12.20
2022-11-10T02:57:28.287Z,12.20
2022-11-10T03:00:12.140Z,12.20
2022-11-10T03:02:57.989Z,12.10
2022-11-10T03:05:40.602Z,12.20
2022-11-10T03:08:22.967Z,12.20
2022-11-10T03:11:06.470Z,12.10
2022-11-10T03:14:00.965Z,12.20
2022-11-10T03:16:44.361Z,12.20
2022-11-10T03:19:26.818Z,12.20
2022-11-10T03:22:08.781Z,12.10
2022-11-10T03:24:51.133Z,12.10
2022-11-10T03:27:34.716Z,12.20
2022-11-10T03:30:16.758Z,12.10
2022-11-10T03:32:59.425Z,12.10
2022-11-10T03:35:41.597Z,12.20
2022-11-10T03:38:23.473Z,12.10
2022-11-10T03:41:19.374Z,12.10
2022-11-10T03:44:04.260Z,12.10
2022-11-10T03:46:51.323Z,12.00
2022-11-10T03:49:33.691Z,12.00
2022-11-10T03:52:15.593Z,12.00
2022-11-10T03:55:02.935Z,11.90
2022-11-10T03:57:46.054Z,11.90
2022-11-10T04:00:30.334Z,11.90
2022-11-10T04:03:12.563Z,11.80
2022-11-10T04:06:12.432Z,11.80
2022-11-10T04:09:00.428Z,11.80
2022-11-10T04:11:59.583Z,11.80
2022-11-10T04:14:59.257Z,11.70
2022-11-10T04:17:42.746Z,11.70
2022-11-10T04:20:24.925Z,11.60
2022-11-10T04:23:24.764Z,11.50
2022-11-10T04:26:27.091Z,11.50
2022-11-10T04:29:11.478Z,11.50
2022-11-10T04:31:53.815Z,11.50
2022-11-10T04:34:37.547Z,11.40
2022-11-10T04:37:19.652Z,11.30
2022-11-10T04:40:02.087Z,11.30
2022-11-10T04:42:43.922Z,11.20
2022-11-10T04:45:25.847Z,11.20
2022-11-10T04:48:08.263Z,11.20
2022-11-10T04:50:52.757Z,11.10
2022-11-10T04:53:35.399Z,11.10
2022-11-10T04:56:18.965Z,11.00
2022-11-10T04:59:01.015Z,11.00
2022-11-10T05:01:42.924Z,11.00
2022-11-10T05:04:25.165Z,11.00
2022-11-10T05:07:08.383Z,10.90
2022-11-10T05:09:50.871Z,10.90
2022-11-10T05:12:33.235Z,10.80
2022-11-10T05:15:15.323Z,10.70
2022-11-10T05:17:57.704Z,10.70
2022-11-10T05:20:39.810Z,10.70
2022-11-10T05:23:44.114Z,10.60
2022-11-10T05:26:26.267Z,10.60
2022-11-10T05:29:08.861Z,10.60
2022-11-10T05:31:51.738Z,10.50
2022-11-10T05:34:34.030Z,10.50
2022-11-10T05:37:15.933Z,10.50
2022-11-10T05:39:59.385Z,10.50
2022-11-10T05:42:45.078Z,10.40
2022-11-10T05:45:29.677Z,10.40
2022-11-10T05:48:11.611Z,10.40
2022-11-10T05:50:53.762Z,10.40
2022-11-10T05:53:35.694Z,10.30
2022-11-10T05:56:19.603Z,10.30
2022-11-10T05:59:01.563Z,10.20
2022-11-10T06:01:43.938Z,10.20
2022-11-10T06:04:26.101Z,10.20
2022-11-10T06:07:08.198Z,10.10
2022-11-10T06:09:50.583Z,10.10
2022-11-10T06:12:34.298Z,10.10
2022-11-10T06:15:17.051Z,10.10
2022-11-10T06:17:59.534Z,10.00
2022-11-10T06:20:41.699Z,10.00
2022-11-10T06:23:24.345Z,10.00
2022-11-10T06:26:07.161Z,9.90
2022-11-10T06:28:50.915Z,9.90
2022-11-10T06:31:33.062Z,9.90
2022-11-10T06:34:14.975Z,9.80
2022-11-10T06:36:56.959Z,9.80
2022-11-10T06:39:39.370Z,9.80
2022-11-10T06:42:21.488Z,9.80
2022-11-10T06:45:05.718Z,9.80
2022-11-10T06:47:47.631Z,9.80
2022-11-10T06:50:30.304Z,9.80
2022-11-10T06:53:13.735Z,9.80
2022-11-10T06:55:56.286Z,9.80
2022-11-10T06:58:38.048Z,9.80
2022-11-10T07:01:22.737Z,9.80
2022-11-10T07:04:19.114Z,9.80
2022-11-10T07:07:02.426Z,9.80
2022-11-10T07:09:44.750Z,9.90
2022-11-10T07:12:26.545Z,10.00
2022-11-10T07:15:10.868Z,10.10
2022-11-10T07:17:54.325Z,10.10
2022-11-10T07:20:37.083Z,10.10
2022-11-10T07:23:19.557Z,10.20
2022-11-10T07:26:02.129Z,10.30
2022-11-10T07:28:44.389Z,10.40
2022-11-10T07:31:26.625Z,10.50
2022-11-10T07:34:11.077Z,10.50
2022-11-10T07:36:52.863Z,10.60
2022-11-10T07:39:34.851Z,10.70
2022-11-10T07:42:16.749Z,10.80
2022-11-10T07:44:58.839Z,10.80
2022-11-10T07:47:40.747Z,10.90
2022-11-10T07:50:24.132Z,10.90
2022-11-10T07:53:07.976Z,10.90
2022-11-10T07:55:50.362Z,11.00
2022-11-10T07:58:33.165Z,11.00
2022-11-10T08:01:15.503Z,11.10
2022-11-10T08:03:57.813Z,11.10
2022-11-10T08:06:41.078Z,11.20
2022-11-10T08:09:23.247Z,11.20
2022-11-10T08:12:06.718Z,11.20
2022-11-10T08:14:48.943Z,11.30
2022-11-10T08:17:31.299Z,11.30
2022-11-10T08:20:13.610Z,11.30
2022-11-10T08:23:01.104Z,11.40
2022-11-10T08:25:43.798Z,11.40
2022-11-10T08:28:26.356Z,11.50
2022-11-10T08:31:08.847Z,11.50
2022-11-10T08:33:51.444Z,11.50
2022-11-10T08:36:33.314Z,11.70
2022-11-10T08:39:30.328Z,11.80
2022-11-10T08:42:19.051Z,11.90
2022-11-10T08:45:01.010Z,12.00
2022-11-10T08:47:44.735Z,12.20
2022-11-10T08:50:27.229Z,12.30
2022-11-10T08:53:13.152Z,12.40
2022-11-10T08:56:00.694Z,12.50
2022-11-10T08:58:50.268Z,12.60
2022-11-10T09:01:35.463Z,12.80
2022-11-10T09:04:18.023Z,13.00
2022-11-10T09:07:00.442Z,13.10
2022-11-10T09:09:43.136Z,13.40
2022-11-10T09:12:28.707Z,13.70
2022-11-10T09:15:12.722Z,14.10
2022-11-10T09:17:54.929Z,14.20
2022-11-10T09:20:39.171Z,14.50
2022-11-10T09:23:22.503Z,14.60
2022-11-10T09:26:06.939Z,14.50
2022-11-10T09:28:51.429Z,14.70
2022-11-10T09:31:33.698Z,14.60
2022-11-10T09:34:15.930Z,14.70
2022-11-10T09:36:57.938Z,14.70
2022-11-10T09:39:39.923Z,14.80
2022-11-10T09:42:31.634Z,15.10
2022-11-10T09:45:25.248Z,15.30
2022-11-10T09:48:17.034Z,15.60
2022-11-10T09:51:04.622Z,15.70
2022-11-10T09:53:52.585Z,15.60
2022-11-10T09:56:36.938Z,15.50
2022-11-10T09:59:26.658Z,15.50
2022-11-10T10:02:24.050Z,15.30
2022-11-10T10:05:33.960Z,15.10
2022-11-10T10:08:26.385Z,15.00
2022-11-10T10:11:26.142Z,14.90
2022-11-10T10:14:37.586Z,14.70
2022-11-10T10:17:28.104Z,14.60
2022-11-10T10:20:17.049Z,14.50
2022-11-10T10:23:13.190Z,14.40
2022-11-10T10:25:55.767Z,14.40
2022-11-10T10:28:40.932Z,14.30
2022-11-10T10:31:25.483Z,14.20
2022-11-10T10:34:16.381Z,14.20
2022-11-10T10:36:58.780Z,14.10
2022-11-10T10:39:45.718Z,14.10
2022-11-10T10:42:34.201Z,14.10
2022-11-10T10:45:23.366Z,14.10
2022-11-10T10:48:26.255Z,14.20
2022-11-10T10:51:10.481Z,14.10
2022-11-10T10:53:53.045Z,14.10
2022-11-10T10:56:35.336Z,14.10
2022-11-10T10:59:22.825Z,14.10
2022-11-10T11:02:04.629Z,14.10
2022-11-10T11:04:46.715Z,14.20
2022-11-10T11:07:31.287Z,14.30
2022-11-10T11:10:23.492Z,14.30
2022-11-10T11:13:17.794Z,14.40
2022-11-10T11:16:02.363Z,14.30
2022-11-10T11:18:44.558Z,14.20
2022-11-10T11:21:35.034Z,14.20
2022-11-10T11:24:32.150Z,14.20
2022-11-10T11:27:21.778Z,14.30
2022-11-10T11:30:10.500Z,14.30
2022-11-10T11:33:11.169Z,14.40
2022-11-10T11:36:00.015Z,14.50
2022-11-10T11:38:54.479Z,14.50
2022-11-10T11:41:45.565Z,14.50
2022-11-10T11:44:45.410Z,14.50
2022-11-10T11:47:47.120Z,14.50
2022-11-10T11:50:33.797Z,14.60
2022-11-10T11:53:36.197Z,14.60
2022-11-10T11:56:25.948Z,14.80
2022-11-10T11:59:28.382Z,14.80
2022-11-10T12:02:35.583Z,14.90
2022-11-10T12:05:43.085Z,14.80
2022-11-10T12:08:38.039Z,14.80
2022-11-10T12:11:29.104Z,14.70
2022-11-10T12:14:21.967Z,14.60
2022-11-10T12:17:15.909Z,14.60
2022-11-10T12:20:05.342Z,14.60
2022-11-10T12:22:55.774Z,14.70
2022-11-10T12:25:49.926Z,14.80
2022-11-10T12:28:39.525Z,14.80
2022-11-10T12:31:26.870Z,14.70
2022-11-10T12:34:19.517Z,14.80
2022-11-10T12:37:06.760Z,14.80
2022-11-10T12:39:55.760Z,14.90
2022-11-10T12:42:40.110Z,14.90
2022-11-10T12:45:26.522Z,14.90
2022-11-10T12:48:13.074Z,14.90
2022-11-10T12:51:01.105Z,14.90
2022-11-10T12:53:45.822Z,15.00
2022-11-10T12:56:35.070Z,15.00
2022-11-10T12:59:32.669Z,15.10
2022-11-10T13:02:31.128Z,15.20
2022-11-10T13:05:45.284Z,15.30
2022-11-10T13:08:35.173Z,15.30
2022-11-10T13:11:29.435Z,15.20
2022-11-10T13:14:24.330Z,15.20
2022-11-10T13:17:07.109Z,15.20
2022-11-10T13:19:54.949Z,15.20
2022-11-10T13:22:40.970Z,15.20
2022-11-10T13:25:57.745Z,15.10
2022-11-10T13:29:02.762Z,15.10
2022-11-10T13:31:54.071Z,15.10
2022-11-10T13:34:37.458Z,15.10
2022-11-10T13:37:53.246Z,15.20
2022-11-10T13:40:39.457Z,15.30
2022-11-10T13:43:27.802Z,15.30
2022-11-10T13:46:10.089Z,15.30
2022-11-10T13:49:31.172Z,15.10
2022-11-10T13:52:17.906Z,15.10
2022-11-10T13:55:16.789Z,15.10
2022-11-10T13:58:04.362Z,15.10
2022-11-10T14:00:51.674Z,15.10
2022-11-10T14:04:02.042Z,15.10
2022-11-10T14:06:49.974Z,15.10
2022-11-10T14:09:39.637Z,15.10
2022-11-10T14:12:30.722Z,15.20
2022-11-10T14:15:18.684Z,15.20
2022-11-10T14:18:01.334Z,15.10
2022-11-10T14:20:45.619Z,15.00
2022-11-10T14:23:33.202Z,14.90
2022-11-10T14:26:25.126Z,14.90
2022-11-10T14:29:31.549Z,14.80
2022-11-10T14:32:21.394Z,14.70
2022-11-10T14:35:04.437Z,14.70
2022-11-10T14:37:46.857Z,14.60
2022-11-10T14:40:30.025Z,14.60
2022-11-10T14:43:27.554Z,14.50
2022-11-10T14:46:16.116Z,14.40
2022-11-10T14:49:00.319Z,14.40
2022-11-10T14:51:42.787Z,14.50
2022-11-10T14:54:28.714Z,14.50
2022-11-10T14:57:20.594Z,14.50
2022-11-10T15:00:02.663Z,14.40
2022-11-10T15:02:46.544Z,14.40
2022-11-10T15:05:31.572Z,14.40
2022-11-10T15:08:16.288Z,14.30
2022-11-10T15:10:58.837Z,14.20
2022-11-10T15:13:41.507Z,14.10
2022-11-10T15:16:26.726Z,14.10
2022-11-10T15:19:28.743Z,14.10
2022-11-10T15:22:19.134Z,14.00
2022-11-10T15:25:09.174Z,13.90
2022-11-10T15:27:59.505Z,13.70
2022-11-10T15:30:51.327Z,13.70
2022-11-10T15:33:35.784Z,13.60
2022-11-10T15:36:32.114Z,13.60
2022-11-10T15:39:23.323Z,13.50
2022-11-10T15:42:15.843Z,13.40
2022-11-10T15:44:58.940Z,13.40
2022-11-10T15:47:42.769Z,13.30
2022-11-10T15:50:24.994Z,13.20
2022-11-10T15:53:15.676Z,13.10
2022-11-10T15:55:57.682Z,13.10
2022-11-10T15:58:39.790Z,13.00
2022-11-10T16:01:22.579Z,12.90
2022-11-10T16:04:04.640Z,12.90
2022-11-10T16:06:47.340Z,12.70
2022-11-10T16:09:31.211Z,12.70
2022-11-10T16:12:20.039Z,12.60
2022-11-10T16:15:01.991Z,12.50
2022-11-10T16:17:44.173Z,12.50
2022-11-10T16:20:26.081Z,12.50
2022-11-10T16:23:08.990Z,12.40
2022-11-10T16:25:55.518Z,12.30
2022-11-10T16:28:37.653Z,12.30
2022-11-10T16:31:22.587Z,12.20
2022-11-10T16:34:04.776Z,12.20
2022-11-10T16:36:49.091Z,12.10
2022-11-10T16:39:32.115Z,12.10
2022-11-10T16:42:15.574Z,12.00
2022-11-10T16:44:57.552Z,12.00
2022-11-10T16:47:39.569Z,12.00
2022-11-10T16:50:32.966Z,11.80
2022-11-10T16:53:18.370Z,11.80
2022-11-10T16:56:00.282Z,11.80
2022-11-10T16:58:43.641Z,11.80
2022-11-10T17:01:29.434Z,11.70
2022-11-10T17:04:14.294Z,11.70
2022-11-10T17:06:56.477Z,11.70
2022-11-10T17:09:38.949Z,11.60
2022-11-10T17:12:20.854Z,11.60
2022-11-10T17:15:04.127Z,11.50
2022-11-10T17:17:50.630Z,11.50
2022-11-10T17:20:37.840Z,11.40
2022-11-10T17:23:24.401Z,11.40
2022-11-10T17:26:09.873Z,11.40
2022-11-10T17:28:52.429Z,11.40
2022-11-10T17:31:35.950Z,11.50
2022-11-10T17:34:18.115Z,11.50
2022-11-10T17:37:00.109Z,11.50
2022-11-10T17:39:42.086Z,11.50
2022-11-10T17:42:24.001Z,11.60
2022-11-10T17:45:07.367Z,11.70
2022-11-10T17:47:51.951Z,11.80
2022-11-10T17:50:34.766Z,11.80
2022-11-10T17:53:22.287Z,11.90
2022-11-10T17:56:05.336Z,11.90
2022-11-10T17:58:47.352Z,12.00
2022-11-10T18:01:29.402Z,12.00
2022-11-10T18:04:14.995Z,12.10
2022-11-10T18:06:57.727Z,12.10
2022-11-10T18:09:40.346Z,12.20
2022-11-10T18:12:27.633Z,12.20
2022-11-10T18:15:14.362Z,12.30
2022-11-10T18:18:00.931Z,12.30
2022-11-10T18:20:45.710Z,12.40
2022-11-10T18:23:27.978Z,12.40
2022-11-10T18:26:11.720Z,12.50
2022-11-10T18:28:54.228Z,12.50
2022-11-10T18:31:36.268Z,12.50
2022-11-10T18:34:18.086Z,12.60
2022-11-10T18:37:01.305Z,12.60
2022-11-10T18:39:43.901Z,12.60
2022-11-10T18:42:26.343Z,12.60
2022-11-10T18:45:09.885Z,12.70
2022-11-10T18:47:52.115Z,12.70
2022-11-10T18:50:34.251Z,12.70
2022-11-10T18:53:17.691Z,12.80
2022-11-10T18:55:59.939Z,12.80
2022-11-10T18:58:42.576Z,12.80
2022-11-10T19:01:25.775Z,12.80
2022-11-10T19:04:07.921Z,12.80
2022-11-10T19:06:50.362Z,12.80
2022-11-10T19:09:34.092Z,12.80
2022-11-10T19:12:16.526Z,12.90
2022-11-10T19:14:58.355Z,12.90
2022-11-10T19:17:40.724Z,12.90
2022-11-10T19:20:22.887Z,12.90
2022-11-10T19:23:05.595Z,12.90
2022-11-10T19:25:49.109Z,12.90
2022-11-10T19:28:31.461Z,12.90
2022-11-10T19:31:15.906Z,12.90
2022-11-10T19:33:59.589Z,12.90
2022-11-10T19:36:41.761Z,12.90
2022-11-10T19:39:24.333Z,13.00
2022-11-10T19:42:07.789Z,12.90
2022-11-10T19:44:49.721Z,13.00
2022-11-10T19:47:31.744Z,13.00
2022-11-10T19:50:13.915Z,13.00
2022-11-10T19:52:56.473Z,13.00
2022-11-10T19:55:38.586Z,13.00
2022-11-10T19:58:22.274Z,13.00
2022-11-10T20:01:05.134Z,13.00
2022-11-10T20:03:47.824Z,13.00
2022-11-10T20:06:30.011Z,13.00
2022-11-10T20:09:11.811Z,13.00
2022-11-10T20:11:54.329Z,13.00
2022-11-10T20:14:38.054Z,13.00
2022-11-10T20:17:20.224Z,12.90
2022-11-10T20:20:02.188Z,12.90
2022-11-10T20:22:44.263Z,13.00
2022-11-10T20:25:26.158Z,13.00
2022-11-10T20:28:09.095Z,13.00
2022-11-10T20:30:52.561Z,13.00
2022-11-10T20:33:35.302Z,13.00
2022-11-10T20:36:20.862Z,13.00
2022-11-10T20:39:03.369Z,13.00
2022-11-10T20:41:45.367Z,13.00
2022-11-10T20:44:27.480Z,13.00
2022-11-10T20:47:10.836Z,13.00
2022-11-10T20:49:53.034Z,13.00
2022-11-10T20:52:35.267Z,13.00
2022-11-10T20:55:18.438Z,13.00
2022-11-10T20:58:00.887Z,13.00
2022-11-10T21:00:44.435Z,13.00
2022-11-10T21:03:28.380Z,12.90
2022-11-10T21:06:11.076Z,12.90
2022-11-10T21:08:53.573Z,12.90
2022-11-10T21:11:52.793Z,13.00
2022-11-10T21:14:34.873Z,12.90
2022-11-10T21:17:16.814Z,12.90
2022-11-10T21:20:00.383Z,12.80
2022-11-10T21:22:42.619Z,12.80
2022-11-10T21:25:25.248Z,12.70
2022-11-10T21:28:07.893Z,12.70
2022-11-10T21:30:50.198Z,12.60
2022-11-10T21:33:32.282Z,12.60
2022-11-10T21:36:16.198Z,12.50
2022-11-10T21:38:59.152Z,12.50
2022-11-10T21:41:41.882Z,12.50
2022-11-10T21:44:31.442Z,12.40
2022-11-10T21:47:13.780Z,12.40
2022-11-10T21:49:56.133Z,12.30
2022-11-10T21:52:39.697Z,12.30
2022-11-10T21:55:22.139Z,12.20
2022-11-10T21:58:04.390Z,12.20
2022-11-10T22:00:46.670Z,12.10
2022-11-10T22:03:30.117Z,12.00
2022-11-10T22:06:15.281Z,11.90
2022-11-10T22:08:59.115Z,11.90
2022-11-10T22:12:03.958Z,11.80
2022-11-10T22:15:03.577Z,11.80
2022-11-10T22:18:03.295Z,11.80
2022-11-10T22:20:45.569Z,11.80
2022-11-10T22:23:45.815Z,11.80
2022-11-10T22:26:29.273Z,11.70
2022-11-10T22:29:11.680Z,11.70
2022-11-10T22:31:54.392Z,11.70
2022-11-10T22:34:36.378Z,11.70
2022-11-10T22:37:18.534Z,11.60
2022-11-10T22:40:18.826Z,11.60
2022-11-10T22:43:21.433Z,11.60
2022-11-10T22:46:04.394Z,11.50
2022-11-10T22:48:46.531Z,11.50
2022-11-10T22:51:30.771Z,11.50
2022-11-10T22:54:15.834Z,11.40
2022-11-10T22:56:58.271Z,11.30
2022-11-10T22:59:41.638Z,11.30
2022-11-10T23:02:23.731Z,11.20
2022-11-10T23:05:06.749Z,11.20
2022-11-10T23:07:49.376Z,11.10
2022-11-10T23:10:31.299Z,11.00
2022-11-10T23:13:14.665Z,11.00
2022-11-10T23:16:02.745Z,10.90
2022-11-10T23:18:47.210Z,10.90
2022-11-10T23:21:31.778Z,10.80
2022-11-10T23:24:14.528Z,10.70
2022-11-10T23:26:56.417Z,10.70
2022-11-10T23:29:38.939Z,10.70
2022-11-10T23:32:22.324Z,10.60
2022-11-10T23:35:04.829Z,10.60
2022-11-10T23:37:46.711Z,10.50
2022-11-10T23:40:29.249Z,10.50
2022-11-10T23:43:11.185Z,10.50
2022-11-10T23:46:06.463Z,10.40
2022-11-10T23:48:51.024Z,10.40
2022-11-10T23:51:33.225Z,10.30
2022-11-10T23:54:15.231Z,10.30
2022-11-10T23:56:57.769Z,10.30
2022-11-10T23:59:39.891Z,10.30
